Flight Track Log - Related Links

Times and Time Zones

All times are in EDT time to prevent confusion due to time zone crossing. See the N213SR flight status page for this flight to view local times or setup timezone preferences in your user account.

Time Position Orientation Groundspeed Altitude Reporting Facility
EDT Latitude Longitude Course Direction KTS MPH feet Rate Location/Type
Fri 09:46:54 AM 30.3364 -81.5111 298° West 70 81 600  Level Jacksonville Center
Fri 09:48:20 AM 30.3514 -81.5444 298° West 144 166 1,600 612 Climbing Jacksonville Center
Fri 09:49:21 AM 30.3497 -81.5950 268° West 162 186 2,100 492 Climbing Jacksonville Center
Fri 09:50:22 AM 30.3100 -81.5933 178° South 157 181 2,600 443 Climbing Jacksonville Center
Fri 09:51:23 AM 30.2786 -81.5792 159° South 123 142 3,000 246 Climbing Jacksonville Center
Fri 09:52:24 AM 30.2469 -81.5508 142° Southeast 146 168 3,100 49 Climbing Jacksonville Center
Fri 09:53:25 AM 30.2069 -81.5203 147° Southeast 161 185 3,100  Level Jacksonville Center
Fri 09:54:32 AM 30.1711 -81.4894 143° Southeast 156 180 3,100 -47 Level Jacksonville Center
Fri 09:55:33 AM 30.1353 -81.4658 150° Southeast 142 163 3,000 -344 Descending Jacksonville Center
Fri 09:56:34 AM 30.0981 -81.4906 210° Southwest 157 181 2,400 -466 Descending Jacksonville Center
Fri 09:57:29 AM 30.0647 -81.5053 201° Southwest 157 181 2,100 -362 Descending Jacksonville Center
Fri 09:58:30 AM 30.0394 -81.4672 127° Southeast 145 167 1,700 -197 Descending Jacksonville Center
Fri 09:59:31 AM 30.0203 -81.4342 124° Southeast 129 148 1,700 -103 Level Jacksonville Center
Fri 10:00:26 AM 30.0031 -81.4081 127° Southeast 108 124 1,500 -393 Descending Jacksonville Center
Fri 10:01:33 AM 29.9883 -81.3867 128° Southeast 85 98 900 47 Descending Jacksonville Center
Fri 10:04:42 AM 29.9414 -81.3011 122° Southeast 123 142 1,700 265 Climbing Jacksonville Center
Fri 10:05:19 AM 29.9642 -81.2958 11° North 151 174 1,900 367 Climbing Jacksonville Center
Fri 10:06:20 AM 30.0103 -81.3022 353° North 153 176 2,300 443 Climbing Jacksonville Center
Fri 10:07:21 AM 30.0397 -81.3233 328° Northwest 153 176 2,800 393 Climbing Jacksonville Center
Fri 10:08:22 AM 30.0508 -81.3711 285° West 155 178 3,100 148 Climbing Jacksonville Center
Fri 10:09:23 AM 30.0700 -81.4214 294° West 183 211 3,100  Level Jacksonville Center
Fri 10:10:24 AM 30.0833 -81.4714 287° West 157 181 3,100  Level Jacksonville Center
Fri 10:11:31 AM 30.0983 -81.5169 291° West 147 169 3,100  Level Jacksonville Center
Fri 10:12:31 AM 30.1114 -81.5647 288° West 145 167 3,100  Level Jacksonville Center
Fri 10:13:32 AM 30.1244 -81.6103 288° West 142 163 3,100  Level Jacksonville Center
Fri 10:14:33 AM 30.1331 -81.6533 283° West 144 166 3,100  Level Jacksonville Center
Fri 10:15:35 AM 30.1253 -81.6989 259° West 140 161 3,100  Level Jacksonville Center
Fri 10:16:36 AM 30.1214 -81.7422 264° West 142 163 3,100  Level Jacksonville Center
Fri 10:17:37 AM 30.1447 -81.7806 305° West 140 161 3,100  Level Jacksonville Center
Fri 10:18:38 AM 30.1681 -81.8233 302° West 144 166 3,100  Level Jacksonville Center
Fri 10:19:39 AM 30.1933 -81.8592 309° West 141 162 3,100  Level Jacksonville Center
Fri 10:20:46 AM 30.2167 -81.8997 304° West 145 167 3,100  Level Jacksonville Center
Fri 10:21:47 AM 30.2233 -81.9453 280° West 141 162 3,100  Level Jacksonville Center
Fri 10:22:48 AM 30.2383 -81.9836 294° West 135 155 3,100  Level Jacksonville Center
Fri 10:23:49 AM 30.2469 -82.0244 284° West 129 148 3,100  Level Jacksonville Center
Fri 10:24:50 AM 30.2597 -82.0678 289° West 128 147 3,100  Level Jacksonville Center
Fri 10:25:51 AM 30.2661 -82.1061 281° West 122 140 3,100 -246 Level Jacksonville Center
Fri 10:26:52 AM 30.2433 -82.1400 232° Southwest 140 161 2,600 -443 Descending Jacksonville Center
Fri 10:27:53 AM 30.2269 -82.1786 244° Southwest 147 169 2,200 -197 Descending Jacksonville Center
Fri 10:28:54 AM 30.2561 -82.1758 North 134 154 2,200 -148 Level Jacksonville Center
Fri 10:29:55 AM 30.2725 -82.1372 64° Northeast 137 158 1,900 -492 Descending Jacksonville Center
Fri 10:30:56 AM 30.2681 -82.0917 96° East 153 176 1,200 -344 Descending Jacksonville Center
Fri 10:31:57 AM 30.2553 -82.0461 108° East 146 168 1,200 49 Level Jacksonville Center
Fri 10:32:58 AM 30.2342 -82.0031 120° Southeast 140 161 1,300 -197 Climbing Jacksonville Center
Fri 10:33:59 AM 30.2256 -81.9597 103° East 157 181 800 -197 Descending Jacksonville Center
Fri 10:35:00 AM 30.2211 -81.9214 98° East 123 142 900 49 Climbing Jacksonville Center
Fri 10:36:01 AM 30.2103 -81.8928 114° Southeast 101 116 900 148 Level Jacksonville Center
Fri 10:37:02 AM 30.1956 -81.8592 117° Southeast 122 140 1,200 393 Climbing Jacksonville Center
Fri 10:38:03 AM 30.1639 -81.8283 140° Southeast 152 175 1,700 492 Climbing Jacksonville Center
Fri 10:39:04 AM 30.1386 -81.7925 129° Southeast 150 173 2,200 590 Climbing Jacksonville Center
Fri 10:40:05 AM 30.1236 -81.7447 110° East 145 167 2,900 443 Climbing Jacksonville Center
Fri 10:41:06 AM 30.1253 -81.7014 87° East 143 165 3,100 98 Climbing Jacksonville Center
Fri 10:42:07 AM 30.1269 -81.6558 88° East 123 142 3,100  Level Jacksonville Center
Fri 10:43:08 AM 30.1347 -81.6125 78° East 149 171 3,100  Level Jacksonville Center
Fri 10:44:09 AM 30.1511 -81.5689 67° East 143 165 3,100  Level Jacksonville Center
Fri 10:45:16 AM 30.1486 -81.5211 93° East 145 167 3,100  Level Jacksonville Center
Fri 10:46:17 AM 30.1564 -81.4775 78° East 146 168 3,100  Level Jacksonville Center
Fri 10:47:18 AM 30.1747 -81.4364 63° Northeast 135 155 3,100  Level Jacksonville Center
Fri 10:48:19 AM 30.1617 -81.4006 113° Southeast 142 163 3,100  Level Jacksonville Center
Fri 10:49:20 AM 30.1322 -81.3700 138° Southeast 131 151 3,100  Level Jacksonville Center
Fri 10:50:21 AM 30.1422 -81.3361 71° East 143 165 3,100 -295 Level Jacksonville Center
Fri 10:51:22 AM 30.1819 -81.3428 352° North 151 174 2,500 -541 Descending Jacksonville Center
Fri 10:52:23 AM 30.2158 -81.3733 322° Northwest 146 168 2,000 -246 Descending Jacksonville Center
Fri 10:53:24 AM 30.2433 -81.4067 314° West 141 162 2,000  Level Jacksonville Center
Fri 10:54:13 AM 30.2622 -81.4281 316° Northwest 131 151 2,000 -362 Level Jacksonville Center
Fri 10:55:20 AM 30.2878 -81.4589 314° West 96 110 1,300 -590 Descending Jacksonville Center
Fri 10:56:15 AM 30.3047 -81.4803 313° West 101 116 800 -295 Descending Jacksonville Center
Fri 10:57:22 AM 30.3133 -81.5042 293° West 88 101 700 -188 Descending Jacksonville Center
Fri 10:58:23 AM 30.3156 -81.5258 277° West 95 109 400 -295 Descending Jacksonville Center

Login

Don't have an account? Register now (free) for customized features, flight alerts, and more!